Aérodrome :
LOGIN :

S'inscrire | Disclaimer

   EN    FR    IT 

 










Légende :    VFR   VFR Marginal   IFR   IFR Intensif   IFR Très Intensif
Visi : 
Plafond : 
>= 8 km
>= 3000ft
5 à 8 km
1000 à 3000 ft
1500m à 5 km
500 à 1000 ft
800 à 1500m
200 à 500 ft
< 800m
< 200 ft
Symboles :   Orages  Brouillard  Fortes neiges  Fortes précipitations  Vent > 20 kt
SIGMETs :   Divers  Orages  Givrage  Turbulence  Onde Orograph.  Cendres Volcan.







- Altitude de l'aérodrome : 1585 ft
- Code IATA : SIR


LSGS - Sion

DERNIER METAR :
  • 202050Z AUTO VRB01KT 2200 -SN BKN/// 00/M00 Q1004

METARs EXPIRÉS :
  • 202020Z AUTO VRB02KT 4200 -SN BKN/// 00/M00 Q1005
  • 201950Z AUTO VRB01KT 3100 -SN BKN/// 00/M00 Q1006
  • 201920Z AUTO VRB02KT 5000 -SN BKN/// 00/00 Q1006
  • 201850Z AUTO VRB01KT 2100 -SN BKN/// 00/M00 Q1007
  • 201820Z AUTO VRB01KT 1500 SN BKN/// 00/M00 Q1007

TAF TAF LSGS
Valide du 20 à 15h jusqu'au 21 à 00h UTC


201425Z 2015/2024 06008KT 4000 -RASN SCT005 BKN016 OVC025
BECMG 2015/2017 2000 SNRA OVC014
BECMG 2017/2019 1000 SN VV008
TEMPO 2015/2024 0500 SN VV003
Pas de NOTAMs connus pour ce terrain.



MET'MAP, la Météo Aéronautique d'un coup d'oeil ! - Copyright ORBIFLY Décembre 2007 - Disclaimer

ORBIFLY MET'MAP TEAM :

Programmation & Développement : Alexandra Zaïnal
Conception & Développement : Baudouin d'Aumeries
Co-Programmation & Développement : Marc-Olivier Méhu
Soutien technique & logistique : Manuel Goepfert

Contact : metmap@orbifly.com




SOURCES & CREDITS :

   NOAA